Time;durP1;ratioP1;P1;durP2;ratioP2;P2;SDS_P1;SDS_P2;PMS_P1;PMS_P2;Temp;Humidity;BMP_temperature;BMP_pressure;BME280_temperature;BME280_humidity;BME280_pressure;Samples;Min_cycle;Max_cycle;Signal;HPM_P1;HPM_P2
2021/09/01 00:00:40;;;;;;;2.73;2.50;;;15.20;99.90;;;;;;6334316;28;20465;-67
2021/09/01 00:03:43;;;;;;;3.00;2.70;;;15.20;99.90;;;;;;6321899;28;20440;-67
2021/09/01 00:06:46;;;;;;;2.53;2.33;;;15.20;99.90;;;;;;6321974;28;20463;-68
2021/09/01 00:09:49;;;;;;;4.33;3.10;;;15.20;99.90;;;;;;6321809;28;20455;-68
2021/09/01 00:12:52;;;;;;;2.53;2.33;;;15.20;99.90;;;;;;6321637;28;20830;-68
2021/09/01 00:15:57;;;;;;;2.47;2.20;;;15.20;99.90;;;;;;6299322;28;21003;-64
2021/09/01 00:19:03;;;;;;;3.33;3.03;;;15.20;99.90;;;;;;6296251;28;20503;-69
2021/09/01 00:22:06;;;;;;;4.17;2.80;;;15.20;99.90;;;;;;6296586;28;20468;-68
2021/09/01 00:25:10;;;;;;;5.07;2.57;;;15.10;99.90;;;;;;6296853;28;20464;-67
2021/09/01 00:28:13;;;;;;;3.70;2.90;;;15.10;99.90;;;;;;6296506;28;20480;-68
2021/09/01 00:31:19;;;;;;;2.50;2.30;;;15.10;99.90;;;;;;6302547;28;20471;-68
2021/09/01 00:34:22;;;;;;;4.33;2.90;;;15.10;99.90;;;;;;6321325;28;20498;-67
2021/09/01 00:37:25;;;;;;;2.80;2.57;;;15.10;99.90;;;;;;6319700;28;20818;-67
2021/09/01 00:40:31;;;;;;;2.63;2.43;;;15.20;99.90;;;;;;6319930;28;20471;-69
2021/09/01 00:43:34;;;;;;;2.60;2.40;;;15.00;99.90;;;;;;6320067;28;20468;-70
2021/09/01 00:46:39;;;;;;;2.60;2.40;;;15.00;99.90;;;;;;6323598;28;20468;-69
2021/09/01 00:49:42;;;;;;;3.63;2.60;;;14.90;99.90;;;;;;6332864;28;20474;-69
2021/09/01 00:52:45;;;;;;;3.23;2.93;;;14.90;99.90;;;;;;6331984;28;20476;-68
2021/09/01 00:55:49;;;;;;;3.60;3.30;;;14.90;99.90;;;;;;6328842;28;20486;-67
2021/09/01 00:58:52;;;;;;;5.57;4.57;;;14.90;99.90;;;;;;6336970;28;20471;-67
2021/09/01 01:01:57;;;;;;;8.03;6.00;;;14.90;99.90;;;;;;6347973;27;20472;-67
2021/09/01 01:05:01;;;;;;;6.77;6.17;;;14.90;99.90;;;;;;6328866;28;20992;-67
2021/09/01 01:08:06;;;;;;;5.23;4.73;;;14.90;99.90;;;;;;6325711;28;20461;-67
2021/09/01 01:11:13;;;;;;;4.83;4.40;;;14.80;99.90;;;;;;6326115;28;20478;-67
2021/09/01 01:14:16;;;;;;;4.77;4.27;;;14.80;99.90;;;;;;6325752;28;20476;-67
2021/09/01 01:17:23;;;;;;;5.50;3.67;;;14.80;99.90;;;;;;6331881;28;20480;-66
2021/09/01 01:20:26;;;;;;;3.17;2.97;;;14.80;99.90;;;;;;6331883;28;20464;-67
2021/09/01 01:23:30;;;;;;;3.40;2.73;;;14.70;99.90;;;;;;6327747;28;20464;-67
2021/09/01 01:26:34;;;;;;;4.27;3.63;;;14.70;99.90;;;;;;6325699;28;20479;-67
2021/09/01 01:29:37;;;;;;;3.47;3.10;;;14.70;99.90;;;;;;6326690;28;20468;-66
2021/09/01 01:32:42;;;;;;;3.10;2.90;;;14.70;99.90;;;;;;6330263;28;20559;-67
2021/09/01 01:35:46;;;;;;;3.70;3.00;;;14.70;99.90;;;;;;6343450;28;20463;-68
2021/09/01 01:38:49;;;;;;;3.40;2.90;;;14.70;99.90;;;;;;6350854;28;20532;-68
2021/09/01 01:41:54;;;;;;;3.10;2.80;;;14.70;99.90;;;;;;6351167;28;20474;-68
2021/09/01 01:44:57;;;;;;;3.50;3.00;;;14.70;99.90;;;;;;6351163;27;20847;-67
2021/09/01 01:48:01;;;;;;;3.90;3.50;;;14.60;99.90;;;;;;6350678;28;20863;-67
2021/09/01 01:51:04;;;;;;;5.07;2.50;;;14.70;99.90;;;;;;6351053;28;20471;-67
2021/09/01 01:54:07;;;;;;;3.00;2.70;;;14.70;99.90;;;;;;6350687;27;20475;-68
2021/09/01 01:57:11;;;;;;;4.00;3.23;;;14.70;99.90;;;;;;6350755;28;20471;-67
2021/09/01 02:00:16;;;;;;;6.63;3.70;;;14.50;99.90;;;;;;6350443;28;20487;-68
2021/09/01 02:03:19;;;;;;;3.10;2.80;;;14.50;99.90;;;;;;6338009;28;20464;-66
2021/09/01 02:06:22;;;;;;;3.07;2.77;;;14.50;99.90;;;;;;6325278;28;20476;-67
2021/09/01 02:09:25;;;;;;;3.97;3.57;;;14.50;99.90;;;;;;6325173;28;20464;-67
2021/09/01 02:12:30;;;;;;;4.30;2.90;;;14.50;99.90;;;;;;6325209;28;20472;-67
2021/09/01 02:15:33;;;;;;;3.63;2.90;;;14.50;99.90;;;;;;6325870;28;20467;-66
2021/09/01 02:18:36;;;;;;;8.90;3.83;;;14.50;99.90;;;;;;6325593;28;20610;-67
2021/09/01 02:21:39;;;;;;;4.00;3.10;;;14.50;99.90;;;;;;6325756;28;20455;-67
2021/09/01 02:24:43;;;;;;;5.53;3.57;;;14.40;99.90;;;;;;6326038;28;20441;-68
2021/09/01 02:27:48;;;;;;;4.00;3.47;;;14.30;99.90;;;;;;6325733;28;20468;-68
2021/09/01 02:30:52;;;;;;;3.97;3.37;;;14.20;99.90;;;;;;6321586;28;20449;-68
2021/09/01 02:33:55;;;;;;;3.00;2.70;;;14.30;99.90;;;;;;6325409;28;20447;-67
2021/09/01 02:36:58;;;;;;;3.60;3.07;;;14.30;99.90;;;;;;6325546;28;20929;-68
2021/09/01 02:40:02;;;;;;;4.03;3.47;;;14.40;99.90;;;;;;6325472;28;20465;-67
2021/09/01 02:43:06;;;;;;;3.80;3.47;;;14.40;99.90;;;;;;6325540;28;20973;-68
2021/09/01 02:46:09;;;;;;;5.23;3.43;;;14.40;99.90;;;;;;6325464;28;20518;-68
2021/09/01 02:49:13;;;;;;;3.40;2.70;;;14.30;99.90;;;;;;6325523;28;20478;-67
2021/09/01 02:52:16;;;;;;;3.30;3.00;;;14.30;99.90;;;;;;6324840;28;20857;-69
2021/09/01 02:55:19;;;;;;;5.07;3.47;;;14.20;99.90;;;;;;6325280;28;20472;-67
2021/09/01 02:58:24;;;;;;;3.57;3.23;;;14.20;99.90;;;;;;6324944;28;20969;-67
2021/09/01 03:01:27;;;;;;;4.13;3.53;;;14.20;99.90;;;;;;6324739;28;20487;-67
2021/09/01 03:04:30;;;;;;;4.00;3.60;;;14.20;99.90;;;;;;6325141;28;20479;-67
2021/09/01 03:07:34;;;;;;;4.40;4.00;;;14.20;99.90;;;;;;6324564;28;20531;-68
2021/09/01 03:10:37;;;;;;;4.70;3.87;;;14.20;99.90;;;;;;6324948;28;20468;-67
2021/09/01 03:13:42;;;;;;;4.33;3.97;;;14.10;99.90;;;;;;6324931;28;20985;-67
2021/09/01 03:16:45;;;;;;;4.30;3.47;;;14.10;99.90;;;;;;6324627;28;20820;-67
2021/09/01 03:19:48;;;;;;;5.03;3.03;;;14.10;99.90;;;;;;6324796;28;20479;-67
2021/09/01 03:22:51;;;;;;;4.10;3.50;;;14.10;99.90;;;;;;6324013;28;20992;-67
2021/09/01 03:25:54;;;;;;;3.83;2.83;;;14.20;99.90;;;;;;6324639;28;20472;-67
2021/09/01 03:28:59;;;;;;;2.90;2.60;;;14.20;99.90;;;;;;6324860;28;20464;-67
2021/09/01 03:32:03;;;;;;;4.30;3.30;;;14.10;99.90;;;;;;6324853;28;20610;-66
2021/09/01 03:35:08;;;;;;;2.83;2.63;;;14.20;99.90;;;;;;6315072;28;20471;-67
2021/09/01 03:38:11;;;;;;;3.43;3.10;;;14.10;99.90;;;;;;6324335;28;20517;-67
2021/09/01 03:41:14;;;;;;;3.70;3.40;;;13.90;99.90;;;;;;6324107;28;20545;-68
2021/09/01 03:44:19;;;;;;;4.13;3.23;;;13.80;99.90;;;;;;6324187;28;20468;-67
2021/09/01 03:47:22;;;;;;;3.53;3.23;;;13.80;99.90;;;;;;6324251;28;20479;-68
2021/09/01 03:50:25;;;;;;;5.80;3.70;;;13.80;99.90;;;;;;6324154;28;20823;-68
2021/09/01 03:53:28;;;;;;;5.37;3.60;;;13.80;99.90;;;;;;6323848;28;20859;-67
2021/09/01 03:56:31;;;;;;;4.77;3.10;;;13.70;99.90;;;;;;6323980;28;20791;-68
2021/09/01 03:59:36;;;;;;;3.30;3.00;;;13.70;99.90;;;;;;6323631;28;20476;-66
2021/09/01 04:02:39;;;;;;;4.20;3.80;;;13.70;99.90;;;;;;6324368;28;20457;-69
2021/09/01 04:05:43;;;;;;;3.93;3.50;;;13.70;99.90;;;;;;6323405;28;20483;-69
2021/09/01 04:08:46;;;;;;;4.80;3.50;;;13.70;99.90;;;;;;6324203;28;20479;-69
2021/09/01 04:11:49;;;;;;;5.83;3.40;;;13.70;99.90;;;;;;6323783;28;20468;-69
2021/09/01 04:14:53;;;;;;;3.50;3.00;;;13.70;99.90;;;;;;6323927;28;20981;-69
2021/09/01 04:17:57;;;;;;;3.67;3.10;;;13.70;99.90;;;;;;6323792;28;20969;-68
2021/09/01 04:21:00;;;;;;;7.13;4.10;;;13.70;99.90;;;;;;6324026;28;20475;-68
2021/09/01 04:24:03;;;;;;;3.67;2.70;;;13.80;99.90;;;;;;6323607;28;20475;-69
2021/09/01 04:27:06;;;;;;;3.83;3.50;;;13.70;99.90;;;;;;6323455;28;20808;-70
2021/09/01 04:30:12;;;;;;;4.07;3.23;;;13.70;99.90;;;;;;6323901;28;20468;-70
2021/09/01 04:33:15;;;;;;;4.93;4.40;;;13.80;99.90;;;;;;6323663;28;20460;-68
2021/09/01 04:36:18;;;;;;;4.07;3.60;;;13.70;99.90;;;;;;6326793;28;20472;-68
2021/09/01 04:39:21;;;;;;;4.53;3.63;;;13.80;99.90;;;;;;6323851;28;20480;-69
2021/09/01 04:42:26;;;;;;;6.30;3.80;;;13.80;99.90;;;;;;6328333;28;20476;-67
2021/09/01 04:45:31;;;;;;;4.77;3.80;;;13.80;99.90;;;;;;6328109;28;20467;-69
2021/09/01 04:48:34;;;;;;;4.00;3.50;;;13.80;99.90;;;;;;6328364;28;20480;-68
2021/09/01 04:51:37;;;;;;;5.07;3.60;;;13.90;99.90;;;;;;6327892;28;20464;-66
2021/09/01 04:54:40;;;;;;;7.30;3.90;;;13.90;99.90;;;;;;6327826;28;20771;-67
2021/09/01 04:57:43;;;;;;;5.30;4.80;;;13.80;99.90;;;;;;6328180;28;20463;-69
2021/09/01 05:00:48;;;;;;;4.03;3.63;;;13.90;99.90;;;;;;6327694;28;20480;-68
2021/09/01 05:03:51;;;;;;;5.37;4.20;;;14.00;99.90;;;;;;6327811;28;20433;-68
2021/09/01 05:06:54;;;;;;;5.80;5.13;;;14.10;99.90;;;;;;6327655;28;20460;-68
2021/09/01 05:09:57;;;;;;;5.67;3.83;;;14.20;99.90;;;;;;6327539;28;20468;-69
2021/09/01 05:13:01;;;;;;;4.00;3.20;;;14.20;99.90;;;;;;6327921;28;20452;-69
2021/09/01 05:16:06;;;;;;;7.63;4.80;;;14.30;99.90;;;;;;6327820;28;20468;-68
2021/09/01 05:19:11;;;;;;;4.43;4.03;;;14.40;99.90;;;;;;6327394;28;20978;-69
2021/09/01 05:22:17;;;;;;;4.40;3.70;;;14.50;99.90;;;;;;6327961;28;20758;-68
2021/09/01 05:25:20;;;;;;;8.43;4.13;;;14.50;99.90;;;;;;6327494;28;20476;-69
2021/09/01 05:28:27;;;;;;;6.40;5.57;;;14.60;99.90;;;;;;6328093;28;20464;-67
2021/09/01 05:31:32;;;;;;;8.60;5.30;;;14.60;99.90;;;;;;6328649;28;20934;-67
2021/09/01 05:34:36;;;;;;;4.13;3.73;;;14.80;99.90;;;;;;6328853;28;20468;-68
2021/09/01 05:37:39;;;;;;;7.23;4.20;;;14.80;99.90;;;;;;6327952;28;20476;-68
2021/09/01 05:40:43;;;;;;;6.07;4.70;;;15.00;99.90;;;;;;6327694;28;20464;-69
2021/09/01 05:43:47;;;;;;;8.73;4.33;;;15.00;99.90;;;;;;6322556;28;20973;-68
2021/09/01 05:46:53;;;;;;;6.13;3.90;;;15.00;99.90;;;;;;6326604;28;20473;-69
2021/09/01 05:49:58;;;;;;;8.57;4.50;;;15.10;99.90;;;;;;6327304;28;20477;-68
2021/09/01 05:53:01;;;;;;;8.60;4.77;;;15.20;99.90;;;;;;6327124;28;20479;-68
2021/09/01 05:56:07;;;;;;;5.67;4.40;;;15.20;99.90;;;;;;6326397;28;20993;-68
2021/09/01 05:59:14;;;;;;;5.63;4.30;;;15.30;99.90;;;;;;6326834;28;20472;-68
2021/09/01 06:02:22;;;;;;;6.50;4.40;;;15.40;99.90;;;;;;6326895;28;20480;-69
2021/09/01 06:05:28;;;;;;;7.40;5.37;;;15.40;99.90;;;;;;6326730;28;20553;-68
2021/09/01 06:08:34;;;;;;;7.90;4.57;;;15.60;99.90;;;;;;6326450;28;20483;-69
2021/09/01 06:11:38;;;;;;;6.30;4.17;;;15.90;99.90;;;;;;6326488;28;20806;-68
2021/09/01 06:14:41;;;;;;;6.67;4.10;;;17.00;99.90;;;;;;6327258;28;20480;-65
2021/09/01 06:17:46;;;;;;;5.27;4.23;;;17.20;99.90;;;;;;6326227;28;20807;-65
2021/09/01 06:20:49;;;;;;;7.20;3.77;;;17.00;99.90;;;;;;6326035;28;20495;-64
2021/09/01 06:23:53;;;;;;;6.23;5.00;;;17.00;99.90;;;;;;6326305;28;20468;-65
2021/09/01 06:26:56;;;;;;;4.30;3.37;;;17.00;99.90;;;;;;6325628;28;20480;-65
2021/09/01 06:30:00;;;;;;;5.63;3.90;;;17.20;99.90;;;;;;6325662;28;20479;-64
2021/09/01 06:33:05;;;;;;;4.33;4.03;;;17.20;99.90;;;;;;6325748;28;20476;-64
2021/09/01 06:36:08;;;;;;;7.43;4.37;;;17.30;99.90;;;;;;6325830;28;20468;-63
2021/09/01 06:39:11;;;;;;;9.13;4.50;;;17.50;99.90;;;;;;6325394;28;20841;-64
2021/09/01 06:42:14;;;;;;;9.33;3.93;;;18.40;99.90;;;;;;6325433;28;20472;-63
2021/09/01 06:45:17;;;;;;;6.43;4.00;;;19.00;98.40;;;;;;6325324;28;20475;-64
2021/09/01 06:48:22;;;;;;;4.87;3.27;;;19.40;97.60;;;;;;6315819;28;20245;-64
2021/09/01 06:51:25;;;;;;;8.13;3.90;;;20.00;96.00;;;;;;6325033;28;20234;-64
2021/09/01 06:54:28;;;;;;;8.10;4.00;;;20.70;95.20;;;;;;6325155;28;20244;-64
2021/09/01 06:57:32;;;;;;;8.40;4.00;;;22.50;93.10;;;;;;6324123;28;20234;-64
2021/09/01 07:00:35;;;;;;;5.10;4.50;;;23.70;90.00;;;;;;6324870;28;20234;-64
2021/09/01 07:03:40;;;;;;;5.50;4.00;;;24.80;85.00;;;;;;6324916;28;20233;-64
2021/09/01 07:06:43;;;;;;;9.00;4.10;;;25.90;75.90;;;;;;6325400;28;20229;-66
2021/09/01 07:09:46;;;;;;;8.00;4.60;;;27.30;69.40;;;;;;6325107;28;20259;-65
2021/09/01 07:12:50;;;;;;;3.97;3.40;;;28.40;65.20;;;;;;6325197;28;20201;-66
2021/09/01 07:15:53;;;;;;;6.60;3.80;;;29.20;57.80;;;;;;6324540;28;20510;-66
2021/09/01 07:18:57;;;;;;;4.27;3.50;;;29.80;51.50;;;;;;6324902;28;20689;-65
2021/09/01 07:22:00;;;;;;;4.23;3.87;;;31.00;49.50;;;;;;6324625;28;20241;-65
2021/09/01 07:25:04;;;;;;;5.70;4.10;;;31.80;46.40;;;;;;6324583;28;20228;-65
2021/09/01 07:28:09;;;;;;;4.93;4.33;;;32.10;44.70;;;;;;6324566;28;20225;-65
2021/09/01 07:31:12;;;;;;;5.63;4.43;;;32.10;43.30;;;;;;6324509;28;20695;-65
2021/09/01 07:34:17;;;;;;;4.55;3.78;;;33.00;42.40;;;;;;6324657;28;20244;-65
2021/09/01 07:37:20;;;;;;;3.60;3.30;;;34.30;40.50;;;;;;6324219;28;20686;-65
2021/09/01 07:40:24;;;;;;;4.63;4.15;;;34.50;38.10;;;;;;6324381;28;20248;-65
2021/09/01 07:43:28;;;;;;;3.65;3.35;;;33.90;38.10;;;;;;6323906;28;20240;-65
2021/09/01 07:46:31;;;;;;;4.45;3.63;;;33.90;34.80;;;;;;6324707;28;20225;-65
2021/09/01 07:49:36;;;;;;;5.00;4.47;;;33.90;35.50;;;;;;6319739;28;20221;-65
2021/09/01 07:52:39;;;;;;;4.63;3.80;;;34.00;34.10;;;;;;6324594;28;20233;-65
2021/09/01 07:55:42;;;;;;;6.40;4.30;;;33.30;34.60;;;;;;6324340;28;20236;-65
2021/09/01 07:58:46;;;;;;;4.57;3.75;;;32.30;35.30;;;;;;6323642;28;20631;-65
2021/09/01 08:01:49;;;;;;;4.10;3.70;;;30.70;36.70;;;;;;6323836;28;20567;-65
2021/09/01 08:04:54;;;;;;;4.10;3.70;;;29.50;38.30;;;;;;6324313;28;20229;-65
2021/09/01 08:07:57;;;;;;;3.63;3.33;;;28.50;39.40;;;;;;6323594;28;20233;-66
2021/09/01 08:11:00;;;;;;;3.53;3.23;;;28.00;39.30;;;;;;6327896;28;20561;-66
2021/09/01 08:14:03;;;;;;;4.93;4.20;;;27.20;40.10;;;;;;6328518;28;20229;-66
2021/09/01 08:17:06;;;;;;;6.17;4.10;;;26.40;40.60;;;;;;6328543;28;20233;-65
2021/09/01 08:20:13;;;;;;;3.67;3.37;;;26.70;41.50;;;;;;6328646;28;20255;-65
2021/09/01 08:23:16;;;;;;;3.70;3.40;;;29.00;38.60;;;;;;6328583;28;20614;-65
2021/09/01 08:26:19;;;;;;;4.17;3.77;;;28.70;36.70;;;;;;6328948;28;20233;-65
2021/09/01 08:29:23;;;;;;;4.77;3.93;;;27.70;38.50;;;;;;6328570;28;20255;-65
2021/09/01 08:32:26;;;;;;;4.07;3.67;;;27.30;40.10;;;;;;6328843;28;20225;-64
2021/09/01 08:35:30;;;;;;;4.40;4.00;;;27.20;40.30;;;;;;6328290;28;20232;-65
2021/09/01 08:38:34;;;;;;;6.80;3.50;;;27.90;40.20;;;;;;6328457;28;20240;-65
2021/09/01 08:41:38;;;;;;;4.33;3.50;;;30.70;36.70;;;;;;6327940;28;20686;-65
2021/09/01 08:44:42;;;;;;;4.97;4.40;;;30.80;35.60;;;;;;6328520;28;20691;-65
2021/09/01 08:47:45;;;;;;;3.53;3.23;;;29.70;36.40;;;;;;6305404;28;20237;-65
2021/09/01 08:50:50;;;;;;;3.33;3.03;;;28.50;36.90;;;;;;6312874;28;20233;-65
2021/09/01 08:53:55;;;;;;;3.77;3.30;;;27.20;38.10;;;;;;6325045;28;20237;-65
2021/09/01 08:56:59;;;;;;;5.50;3.80;;;27.90;39.20;;;;;;6314287;28;20230;-65
2021/09/01 09:00:04;;;;;;;3.67;3.37;;;28.60;36.80;;;;;;6325784;28;20725;-65
2021/09/01 09:03:09;;;;;;;5.00;4.50;;;28.10;37.30;;;;;;6319217;28;20715;-67
2021/09/01 09:06:14;;;;;;;4.40;3.60;;;28.90;36.90;;;;;;6324718;28;20233;-63
2021/09/01 09:09:19;;;;;;;4.57;3.17;;;29.40;35.40;;;;;;6325222;28;20243;-65
2021/09/01 09:12:32;;;;;;;3.97;3.33;;;30.80;34.60;;;;;;6325183;28;20222;-65
2021/09/01 09:15:37;;;;;;;3.60;3.30;;;31.10;33.10;;;;;;6325297;28;20232;-66
2021/09/01 09:18:41;;;;;;;4.57;4.17;;;29.90;34.40;;;;;;6325193;28;20536;-65
2021/09/01 09:21:46;;;;;;;4.15;3.75;;;32.10;33.30;;;;;;6315824;28;20553;-66
2021/09/01 09:25:04;;;;;;;3.63;3.33;;;32.40;32.00;;;;;;6325388;28;20206;-67
2021/09/01 09:28:08;;;;;;;4.00;3.60;;;30.50;32.80;;;;;;6325000;28;20233;-66
2021/09/01 09:31:12;;;;;;;3.60;3.30;;;29.40;35.10;;;;;;6324689;28;20218;-65
2021/09/01 09:34:18;;;;;;;3.92;3.63;;;31.30;33.40;;;;;;6324729;28;20703;-65
2021/09/01 09:37:23;;;;;;;3.67;3.38;;;32.50;31.70;;;;;;6324621;28;20225;-68
2021/09/01 09:40:26;;;;;;;3.45;3.15;;;34.30;30.40;;;;;;6324633;28;20487;-65
2021/09/01 09:43:30;;;;;;;4.00;3.70;;;34.90;28.70;;;;;;6324642;28;20225;-65
2021/09/01 09:46:47;;;;;;;3.95;3.65;;;35.00;28.60;;;;;;6324302;28;20551;-65
2021/09/01 09:50:08;;;;;;;4.85;3.78;;;35.30;28.50;;;;;;6324600;28;20232;-66
2021/09/01 09:53:12;;;;;;;3.65;3.35;;;34.50;28.30;;;;;;6324416;28;20230;-66
2021/09/01 09:56:18;;;;;;;3.67;3.38;;;33.30;29.30;;;;;;6301621;28;20226;-68
2021/09/01 09:59:24;;;;;;;3.80;3.50;;;32.90;30.00;;;;;;6290193;28;20676;-65
2021/09/01 10:02:27;;;;;;;3.60;3.30;;;32.30;30.00;;;;;;6299230;28;20226;-65
2021/09/01 10:05:30;;;;;;;3.38;3.03;;;31.50;30.20;;;;;;6298919;28;20226;-65
2021/09/01 10:08:37;;;;;;;5.70;3.33;;;30.30;30.80;;;;;;6298746;28;20575;-65
2021/09/01 10:11:45;;;;;;;3.60;3.30;;;28.50;33.20;;;;;;6298986;28;20229;-68
2021/09/01 10:14:48;;;;;;;4.93;3.50;;;27.80;35.20;;;;;;6299180;28;20241;-66
2021/09/01 10:17:55;;;;;;;3.70;3.40;;;27.70;36.20;;;;;;6298848;28;20233;-66
2021/09/01 10:20:59;;;;;;;3.50;3.20;;;27.90;36.00;;;;;;6300510;28;20230;-66
2021/09/01 10:24:24;;;;;;;3.43;3.23;;;28.10;36.10;;;;;;6323623;28;20292;-67
2021/09/01 10:27:28;;;;;;;3.13;2.83;;;28.20;35.40;;;;;;6323748;28;20237;-67
2021/09/01 10:30:32;;;;;;;3.67;3.37;;;28.20;36.40;;;;;;6323345;28;20225;-67
2021/09/01 10:33:36;;;;;;;4.03;3.73;;;28.10;35.60;;;;;;6323270;28;20240;-66
2021/09/01 10:36:48;;;;;;;3.47;3.17;;;28.00;36.10;;;;;;6322793;28;20232;-66
2021/09/01 10:39:52;;;;;;;5.20;3.50;;;28.10;36.40;;;;;;6323479;28;20213;-67
2021/09/01 10:42:57;;;;;;;3.53;3.23;;;28.30;36.00;;;;;;6323321;28;20226;-65
2021/09/01 10:46:00;;;;;;;6.10;3.33;;;28.40;37.00;;;;;;6323179;28;20240;-67
2021/09/01 10:49:03;;;;;;;3.37;3.07;;;28.50;35.70;;;;;;6322702;28;20232;-67
2021/09/01 10:52:06;;;;;;;3.40;3.10;;;28.50;36.00;;;;;;6323149;28;20229;-67
2021/09/01 10:55:12;;;;;;;3.83;3.43;;;28.50;36.00;;;;;;6314885;28;20544;-68
2021/09/01 10:58:21;;;;;;;3.03;2.73;;;28.60;36.10;;;;;;6322908;28;20232;-67
2021/09/01 11:01:24;;;;;;;3.80;3.50;;;28.70;36.10;;;;;;6340072;28;20676;-65
2021/09/01 11:04:27;;;;;;;4.03;3.63;;;28.50;35.30;;;;;;6348206;28;20220;-66
2021/09/01 11:07:32;;;;;;;3.90;3.40;;;28.20;36.70;;;;;;6348073;28;20233;-65
2021/09/01 11:10:36;;;;;;;4.17;3.77;;;28.20;35.90;;;;;;6346732;28;20695;-64
2021/09/01 11:13:41;;;;;;;3.93;3.50;;;28.30;36.00;;;;;;6346544;28;20228;-71
2021/09/01 11:16:44;;;;;;;4.03;3.63;;;28.20;36.70;;;;;;6346251;27;20244;-64
2021/09/01 11:19:49;;;;;;;3.60;3.30;;;28.30;36.80;;;;;;6346780;28;20231;-64
2021/09/01 11:22:52;;;;;;;4.10;3.70;;;28.30;36.40;;;;;;6346278;28;20293;-64
2021/09/01 11:25:58;;;;;;;4.97;3.93;;;28.10;36.20;;;;;;6346861;28;20236;-64
2021/09/01 11:29:07;;;;;;;4.60;4.20;;;27.90;36.40;;;;;;6346703;28;20697;-67
2021/09/01 11:32:15;;;;;;;5.13;3.90;;;27.80;36.80;;;;;;6347196;28;20232;-64
2021/09/01 11:35:20;;;;;;;4.90;4.30;;;27.70;36.60;;;;;;6346965;28;20853;-64
2021/09/01 11:38:23;;;;;;;3.40;2.77;;;27.30;38.50;;;;;;6346499;28;20234;-63
2021/09/01 11:41:28;;;;;;;3.57;3.20;;;27.00;38.10;;;;;;6347345;28;20232;-65
2021/09/01 11:44:32;;;;;;;4.00;3.70;;;26.90;38.30;;;;;;6346924;28;20232;-65
2021/09/01 11:47:40;;;;;;;3.70;3.40;;;26.80;38.30;;;;;;6345024;28;20236;-64
2021/09/01 11:50:44;;;;;;;3.43;3.13;;;26.90;39.00;;;;;;6308328;28;20236;-64
2021/09/01 11:54:08;;;;;;;4.10;3.70;;;26.80;38.20;;;;;;6315637;28;20229;-64
2021/09/01 11:57:27;;;;;;;4.07;3.70;;;26.80;38.70;;;;;;6308370;28;20225;-64
2021/09/01 12:00:30;;;;;;;4.00;3.60;;;26.60;38.80;;;;;;6321398;28;20241;-63
2021/09/01 12:03:34;;;;;;;4.50;4.10;;;26.00;38.60;;;;;;6321804;28;20222;-64
2021/09/01 12:06:58;;;;;;;4.70;4.03;;;25.50;39.40;;;;;;6302461;28;20227;-65
2021/09/01 12:10:05;;;;;;;3.93;3.60;;;25.00;40.40;;;;;;6297276;28;20242;-65
2021/09/01 12:13:10;;;;;;;4.40;4.00;;;25.00;41.30;;;;;;6296653;28;20230;-65
2021/09/01 12:16:14;;;;;;;4.40;4.00;;;25.20;41.30;;;;;;6296610;28;20227;-65
2021/09/01 12:19:18;;;;;;;4.40;4.00;;;25.10;41.40;;;;;;6296262;28;20230;-63
2021/09/01 12:22:34;;;;;;;4.37;3.83;;;25.00;41.80;;;;;;6301467;28;20572;-64
2021/09/01 12:25:39;;;;;;;5.03;4.50;;;24.90;42.10;;;;;;6321382;28;20568;-65
2021/09/01 12:28:48;;;;;;;4.57;4.13;;;24.50;41.70;;;;;;6321438;28;20245;-65
2021/09/01 12:31:52;;;;;;;5.73;3.90;;;24.40;41.90;;;;;;6321499;28;20227;-65
2021/09/01 12:34:56;;;;;;;4.40;3.50;;;24.60;43.10;;;;;;6321420;28;20226;-65
2021/09/01 12:38:03;;;;;;;4.17;3.77;;;24.60;41.80;;;;;;6321104;28;20234;-65
2021/09/01 12:41:20;;;;;;;4.47;3.63;;;25.00;42.20;;;;;;6321202;28;20230;-65
2021/09/01 12:44:25;;;;;;;4.40;4.00;;;25.20;42.20;;;;;;6320791;28;20679;-63
2021/09/01 12:47:29;;;;;;;4.97;3.77;;;25.10;41.20;;;;;;6320936;28;20234;-63
2021/09/01 12:50:34;;;;;;;5.40;4.80;;;25.30;42.40;;;;;;6318728;28;20233;-62
2021/09/01 12:53:37;;;;;;;3.47;3.17;;;25.70;41.70;;;;;;6319718;28;20268;-63
2021/09/01 12:56:41;;;;;;;4.97;3.67;;;26.10;40.60;;;;;;6313681;28;21829;-63
2021/09/01 12:59:46;;;;;;;3.87;3.30;;;26.10;38.10;;;;;;6298990;28;20249;-65
2021/09/01 13:02:49;;;;;;;4.47;3.70;;;26.00;38.30;;;;;;6301277;28;20554;-63
2021/09/01 13:05:52;;;;;;;9.30;4.63;;;26.10;39.10;;;;;;6323182;28;20232;-65
2021/09/01 13:08:56;;;;;;;4.90;4.40;;;26.00;38.30;;;;;;6323729;28;20904;-64
2021/09/01 13:11:59;;;;;;;4.77;3.40;;;26.00;38.20;;;;;;6314696;28;20225;-64
2021/09/01 13:15:04;;;;;;;4.10;3.70;;;25.90;37.40;;;;;;6323860;28;20226;-65
2021/09/01 13:18:08;;;;;;;4.00;3.53;;;25.80;38.00;;;;;;6323107;28;20234;-65
2021/09/01 13:21:11;;;;;;;4.60;3.60;;;25.80;38.20;;;;;;6323788;28;20618;-65
2021/09/01 13:24:15;;;;;;;4.33;3.93;;;25.70;38.50;;;;;;6322928;28;20771;-66
2021/09/01 13:27:18;;;;;;;4.17;3.77;;;25.70;39.50;;;;;;6323698;28;20245;-65
2021/09/01 13:30:24;;;;;;;5.87;3.43;;;25.60;40.30;;;;;;6322860;28;20237;-65
2021/09/01 13:33:27;;;;;;;3.73;3.33;;;25.50;40.20;;;;;;6323435;28;20225;-64
2021/09/01 13:36:31;;;;;;;3.30;3.00;;;25.40;40.00;;;;;;6322673;28;20226;-64
2021/09/01 13:39:34;;;;;;;5.53;3.30;;;25.30;40.20;;;;;;6323107;28;20590;-64
2021/09/01 13:42:37;;;;;;;3.73;3.40;;;25.20;40.00;;;;;;6322458;28;20565;-65
2021/09/01 13:45:43;;;;;;;4.10;3.70;;;25.10;41.00;;;;;;6323173;28;20222;-65
2021/09/01 13:48:46;;;;;;;4.40;3.00;;;25.00;41.30;;;;;;6323055;28;20230;-65
2021/09/01 13:51:49;;;;;;;4.00;3.60;;;25.00;41.50;;;;;;6322638;28;20573;-65
2021/09/01 13:54:53;;;;;;;5.43;3.73;;;24.90;41.20;;;;;;6319971;28;20191;-66
2021/09/01 13:57:59;;;;;;;4.90;3.60;;;24.80;40.00;;;;;;6315100;28;20222;-64
2021/09/01 14:01:04;;;;;;;4.00;3.60;;;24.70;40.90;;;;;;6322430;28;20234;-65
2021/09/01 14:04:08;;;;;;;4.10;3.70;;;24.50;40.60;;;;;;6322166;28;20230;-65
2021/09/01 14:07:11;;;;;;;5.10;3.97;;;24.50;41.50;;;;;;6322013;28;20238;-63
2021/09/01 14:10:14;;;;;;;4.10;3.47;;;24.30;41.60;;;;;;6322533;28;20226;-63
2021/09/01 14:13:17;;;;;;;4.50;3.80;;;24.20;41.40;;;;;;6313154;28;20226;-64
2021/09/01 14:16:22;;;;;;;4.50;4.10;;;24.20;41.60;;;;;;6321981;28;20226;-64
2021/09/01 14:19:26;;;;;;;5.27;4.23;;;24.00;41.80;;;;;;6321884;28;20230;-64
2021/09/01 14:22:29;;;;;;;4.00;3.60;;;23.90;42.50;;;;;;6321683;28;20252;-64
2021/09/01 14:25:32;;;;;;;4.87;4.10;;;23.80;42.50;;;;;;6325724;28;20237;-65
2021/09/01 14:28:36;;;;;;;4.53;4.13;;;23.70;42.30;;;;;;6333174;28;20236;-64
2021/09/01 14:31:43;;;;;;;4.40;4.00;;;23.60;43.10;;;;;;6323421;28;20568;-64
2021/09/01 14:34:46;;;;;;;4.00;3.70;;;23.50;42.80;;;;;;6327466;27;20222;-65
2021/09/01 14:37:49;;;;;;;3.77;3.47;;;23.40;42.70;;;;;;6344029;28;20328;-63
2021/09/01 14:40:52;;;;;;;4.60;3.80;;;23.30;43.10;;;;;;6337686;28;20226;-64
2021/09/01 14:43:55;;;;;;;6.70;3.87;;;23.40;43.40;;;;;;6323015;28;20230;-65
2021/09/01 14:47:00;;;;;;;4.30;3.90;;;23.30;43.40;;;;;;6323417;28;20230;-63
2021/09/01 14:50:04;;;;;;;3.83;3.53;;;23.30;43.50;;;;;;6322894;28;20269;-65
2021/09/01 14:53:12;;;;;;;4.00;3.60;;;23.20;43.00;;;;;;6323302;28;20230;-64
2021/09/01 14:56:15;;;;;;;4.30;3.90;;;23.20;43.10;;;;;;6311598;28;20218;-61
2021/09/01 14:59:18;;;;;;;3.93;3.63;;;23.20;43.40;;;;;;6322630;28;20303;-63
2021/09/01 15:02:23;;;;;;;4.27;3.87;;;23.10;43.90;;;;;;6322367;28;20303;-64
2021/09/01 15:05:26;;;;;;;4.57;4.17;;;23.20;44.00;;;;;;6328382;28;20570;-64
2021/09/01 15:08:29;;;;;;;5.17;3.77;;;23.20;43.70;;;;;;6347203;28;20229;-63
2021/09/01 15:11:32;;;;;;;3.93;3.23;;;23.30;44.60;;;;;;6347827;28;20323;-63
2021/09/01 15:14:35;;;;;;;3.73;3.43;;;23.30;44.20;;;;;;6347513;28;20222;-63
2021/09/01 15:17:41;;;;;;;4.90;4.40;;;23.30;43.80;;;;;;6342788;28;20237;-64
2021/09/01 15:20:44;;;;;;;4.77;4.37;;;23.30;43.60;;;;;;6344632;28;20224;-62
2021/09/01 15:23:47;;;;;;;4.20;3.80;;;23.30;43.80;;;;;;6321826;28;20229;-61
2021/09/01 15:26:51;;;;;;;4.23;3.93;;;23.40;44.10;;;;;;6322041;28;20233;-65
2021/09/01 15:29:54;;;;;;;4.70;4.30;;;23.40;43.40;;;;;;6327049;28;20222;-67
2021/09/01 15:32:58;;;;;;;4.03;3.73;;;23.40;43.80;;;;;;6324472;28;20232;-66
2021/09/01 15:36:03;;;;;;;4.17;3.20;;;23.30;43.60;;;;;;6321981;28;20241;-65
2021/09/01 15:39:06;;;;;;;4.73;3.63;;;23.30;43.50;;;;;;6321826;28;20244;-65
2021/09/01 15:42:14;;;;;;;4.50;4.20;;;23.20;43.20;;;;;;6321165;28;20574;-65
2021/09/01 15:45:19;;;;;;;4.40;4.00;;;23.20;43.40;;;;;;6320340;28;20237;-65
2021/09/01 15:48:26;;;;;;;4.60;4.20;;;23.20;43.80;;;;;;6319668;28;20234;-65
2021/09/01 15:51:32;;;;;;;4.27;3.87;;;23.20;44.10;;;;;;6320189;28;20257;-64
2021/09/01 15:54:36;;;;;;;4.90;4.40;;;23.20;43.80;;;;;;6315969;28;20221;-59
2021/09/01 15:57:39;;;;;;;3.97;3.57;;;23.10;43.50;;;;;;6314023;28;20237;-60
2021/09/01 16:00:42;;;;;;;4.30;3.90;;;23.10;43.80;;;;;;6295892;28;20246;-60